Terminal Aerodrome Forecast
Issued by NWS Detroit/Pontiac, MI

Home | Current Version | Previous Version | Text Only | Print | Product List | Glossary On
Versions: 1 2 3 4 5 6 7 8 9 10 11 12 13 14
000
FTUS43 KDTX 260530
TAFFNT
TAF
KFNT 260530Z 2606/2706 20006KT P6SM SCT060 BKN200
      TEMPO 2611/2615 BKN016
     FM261600 21012KT P6SM SCT045 BKN200
     FM270000 20009KT P6SM -SHRA OVC045 PROB30 2700/2703 3SM TSRA
      OVC030CB=

USA.gov is the U.S. government's official web portal to all federal, state and local government web resources and services.